sensor_id;sensor_type;location;lat;lon;timestamp;P1;durP1;ratioP1;P2;durP2;ratioP2
12433;SDS011;6281;49.038;8.372;2022-07-05T00:01:09;3.77;;;1.43;;
12433;SDS011;6281;49.038;8.372;2022-07-05T00:03:36;1.67;;;1.20;;
12433;SDS011;6281;49.038;8.372;2022-07-05T00:06:03;3.00;;;1.20;;
12433;SDS011;6281;49.038;8.372;2022-07-05T00:08:30;4.30;;;1.00;;
12433;SDS011;6281;49.038;8.372;2022-07-05T00:10:57;1.73;;;1.10;;
12433;SDS011;6281;49.038;8.372;2022-07-05T00:13:24;3.90;;;1.30;;
12433;SDS011;6281;49.038;8.372;2022-07-05T00:15:51;3.85;;;1.35;;
12433;SDS011;6281;49.038;8.372;2022-07-05T00:18:19;2.77;;;1.43;;
12433;SDS011;6281;49.038;8.372;2022-07-05T00:20:46;1.87;;;1.10;;
12433;SDS011;6281;49.038;8.372;2022-07-05T00:23:13;2.57;;;1.40;;
12433;SDS011;6281;49.038;8.372;2022-07-05T00:25:40;1.80;;;1.60;;
12433;SDS011;6281;49.038;8.372;2022-07-05T00:28:07;1.60;;;1.20;;
12433;SDS011;6281;49.038;8.372;2022-07-05T00:30:35;2.73;;;1.30;;
12433;SDS011;6281;49.038;8.372;2022-07-05T00:33:02;2.17;;;1.50;;
12433;SDS011;6281;49.038;8.372;2022-07-05T00:35:31;3.87;;;1.30;;
12433;SDS011;6281;49.038;8.372;2022-07-05T00:37:58;6.07;;;1.43;;
12433;SDS011;6281;49.038;8.372;2022-07-05T00:40:25;3.63;;;1.40;;
12433;SDS011;6281;49.038;8.372;2022-07-05T00:42:52;3.53;;;1.47;;
12433;SDS011;6281;49.038;8.372;2022-07-05T00:45:19;4.83;;;1.70;;
12433;SDS011;6281;49.038;8.372;2022-07-05T00:47:46;3.80;;;1.40;;
12433;SDS011;6281;49.038;8.372;2022-07-05T00:50:13;6.23;;;1.80;;
12433;SDS011;6281;49.038;8.372;2022-07-05T00:52:41;15.13;;;3.00;;
12433;SDS011;6281;49.038;8.372;2022-07-05T00:55:08;7.63;;;2.33;;
12433;SDS011;6281;49.038;8.372;2022-07-05T00:57:36;13.40;;;2.80;;
12433;SDS011;6281;49.038;8.372;2022-07-05T01:00:04;6.43;;;2.23;;
12433;SDS011;6281;49.038;8.372;2022-07-05T01:02:32;9.23;;;2.23;;
12433;SDS011;6281;49.038;8.372;2022-07-05T01:04:59;7.73;;;3.13;;
12433;SDS011;6281;49.038;8.372;2022-07-05T01:07:26;9.07;;;2.30;;
12433;SDS011;6281;49.038;8.372;2022-07-05T01:09:55;3.83;;;1.80;;
12433;SDS011;6281;49.038;8.372;2022-07-05T01:12:23;7.80;;;1.63;;
12433;SDS011;6281;49.038;8.372;2022-07-05T01:14:50;2.77;;;1.70;;
12433;SDS011;6281;49.038;8.372;2022-07-05T01:17:18;4.50;;;1.90;;
12433;SDS011;6281;49.038;8.372;2022-07-05T01:19:45;3.37;;;1.83;;
12433;SDS011;6281;49.038;8.372;2022-07-05T01:22:15;3.50;;;1.93;;
12433;SDS011;6281;49.038;8.372;2022-07-05T01:24:45;4.43;;;1.90;;
12433;SDS011;6281;49.038;8.372;2022-07-05T01:27:13;7.67;;;1.87;;
12433;SDS011;6281;49.038;8.372;2022-07-05T01:29:40;2.50;;;1.73;;
12433;SDS011;6281;49.038;8.372;2022-07-05T01:32:07;2.50;;;2.00;;
12433;SDS011;6281;49.038;8.372;2022-07-05T01:34:36;2.73;;;1.70;;
12433;SDS011;6281;49.038;8.372;2022-07-05T01:37:04;2.47;;;1.83;;
12433;SDS011;6281;49.038;8.372;2022-07-05T01:39:31;2.90;;;1.67;;
12433;SDS011;6281;49.038;8.372;2022-07-05T01:42:00;5.07;;;1.93;;
12433;SDS011;6281;49.038;8.372;2022-07-05T01:44:27;2.90;;;1.80;;
12433;SDS011;6281;49.038;8.372;2022-07-05T01:46:55;6.37;;;2.20;;
12433;SDS011;6281;49.038;8.372;2022-07-05T01:49:28;3.77;;;1.87;;
12433;SDS011;6281;49.038;8.372;2022-07-05T01:52:02;3.13;;;1.80;;
12433;SDS011;6281;49.038;8.372;2022-07-05T01:54:33;4.30;;;1.80;;
12433;SDS011;6281;49.038;8.372;2022-07-05T01:57:02;2.50;;;1.80;;
12433;SDS011;6281;49.038;8.372;2022-07-05T01:59:31;5.57;;;1.73;;
12433;SDS011;6281;49.038;8.372;2022-07-05T02:01:59;4.63;;;1.80;;
12433;SDS011;6281;49.038;8.372;2022-07-05T02:04:26;5.33;;;1.93;;
12433;SDS011;6281;49.038;8.372;2022-07-05T02:06:53;4.70;;;1.90;;
12433;SDS011;6281;49.038;8.372;2022-07-05T02:09:20;3.77;;;1.90;;
12433;SDS011;6281;49.038;8.372;2022-07-05T02:11:47;4.60;;;1.90;;
12433;SDS011;6281;49.038;8.372;2022-07-05T02:14:15;3.10;;;1.90;;
12433;SDS011;6281;49.038;8.372;2022-07-05T02:16:43;2.80;;;1.90;;
12433;SDS011;6281;49.038;8.372;2022-07-05T02:19:10;5.10;;;2.37;;
12433;SDS011;6281;49.038;8.372;2022-07-05T02:21:37;1.77;;;1.67;;
12433;SDS011;6281;49.038;8.372;2022-07-05T02:24:05;2.70;;;1.80;;
12433;SDS011;6281;49.038;8.372;2022-07-05T02:26:33;3.33;;;1.87;;
12433;SDS011;6281;49.038;8.372;2022-07-05T02:29:00;2.33;;;1.97;;
12433;SDS011;6281;49.038;8.372;2022-07-05T02:31:29;3.97;;;2.00;;
12433;SDS011;6281;49.038;8.372;2022-07-05T02:33:56;3.10;;;2.10;;
12433;SDS011;6281;49.038;8.372;2022-07-05T02:36:23;2.67;;;1.77;;
12433;SDS011;6281;49.038;8.372;2022-07-05T02:38:50;3.20;;;1.83;;
12433;SDS011;6281;49.038;8.372;2022-07-05T02:41:17;3.43;;;2.10;;
12433;SDS011;6281;49.038;8.372;2022-07-05T02:43:45;3.37;;;1.83;;
12433;SDS011;6281;49.038;8.372;2022-07-05T02:46:12;2.53;;;1.80;;
12433;SDS011;6281;49.038;8.372;2022-07-05T02:48:40;3.97;;;2.30;;
12433;SDS011;6281;49.038;8.372;2022-07-05T02:51:07;6.13;;;2.10;;
12433;SDS011;6281;49.038;8.372;2022-07-05T02:53:34;2.20;;;2.00;;
12433;SDS011;6281;49.038;8.372;2022-07-05T02:56:02;5.10;;;2.20;;
12433;SDS011;6281;49.038;8.372;2022-07-05T02:58:29;3.40;;;2.50;;
12433;SDS011;6281;49.038;8.372;2022-07-05T03:00:56;3.67;;;2.17;;
12433;SDS011;6281;49.038;8.372;2022-07-05T03:03:23;2.67;;;2.30;;
12433;SDS011;6281;49.038;8.372;2022-07-05T03:05:51;2.63;;;2.23;;
12433;SDS011;6281;49.038;8.372;2022-07-05T03:08:18;3.57;;;2.20;;
12433;SDS011;6281;49.038;8.372;2022-07-05T03:10:45;3.57;;;2.13;;
12433;SDS011;6281;49.038;8.372;2022-07-05T03:13:12;2.93;;;2.50;;
12433;SDS011;6281;49.038;8.372;2022-07-05T03:15:39;2.50;;;2.20;;
12433;SDS011;6281;49.038;8.372;2022-07-05T03:18:07;4.13;;;2.83;;
12433;SDS011;6281;49.038;8.372;2022-07-05T03:20:34;2.83;;;2.40;;
12433;SDS011;6281;49.038;8.372;2022-07-05T03:23:03;2.63;;;2.40;;
12433;SDS011;6281;49.038;8.372;2022-07-05T03:25:30;3.47;;;2.43;;
12433;SDS011;6281;49.038;8.372;2022-07-05T03:27:57;4.43;;;2.50;;
12433;SDS011;6281;49.038;8.372;2022-07-05T03:30:24;3.90;;;2.10;;
12433;SDS011;6281;49.038;8.372;2022-07-05T03:32:51;5.17;;;2.90;;
12433;SDS011;6281;49.038;8.372;2022-07-05T03:35:18;4.70;;;2.47;;
12433;SDS011;6281;49.038;8.372;2022-07-05T03:37:45;2.70;;;2.23;;
12433;SDS011;6281;49.038;8.372;2022-07-05T03:40:14;4.73;;;2.60;;
12433;SDS011;6281;49.038;8.372;2022-07-05T03:42:41;4.73;;;2.67;;
12433;SDS011;6281;49.038;8.372;2022-07-05T03:45:08;2.70;;;2.30;;
12433;SDS011;6281;49.038;8.372;2022-07-05T03:47:36;3.10;;;2.60;;
12433;SDS011;6281;49.038;8.372;2022-07-05T03:50:03;4.30;;;2.30;;
12433;SDS011;6281;49.038;8.372;2022-07-05T03:52:31;2.60;;;2.20;;
12433;SDS011;6281;49.038;8.372;2022-07-05T03:54:58;4.37;;;2.30;;
12433;SDS011;6281;49.038;8.372;2022-07-05T03:57:26;3.83;;;2.40;;
12433;SDS011;6281;49.038;8.372;2022-07-05T03:59:53;5.60;;;2.30;;
12433;SDS011;6281;49.038;8.372;2022-07-05T04:02:20;3.53;;;2.40;;
12433;SDS011;6281;49.038;8.372;2022-07-05T04:04:47;3.07;;;2.60;;
12433;SDS011;6281;49.038;8.372;2022-07-05T04:07:14;5.17;;;2.70;;
12433;SDS011;6281;49.038;8.372;2022-07-05T04:09:41;5.50;;;2.37;;
12433;SDS011;6281;49.038;8.372;2022-07-05T04:12:08;5.87;;;2.33;;
12433;SDS011;6281;49.038;8.372;2022-07-05T04:14:37;5.27;;;2.40;;
12433;SDS011;6281;49.038;8.372;2022-07-05T04:17:04;6.23;;;2.20;;
12433;SDS011;6281;49.038;8.372;2022-07-05T04:19:31;2.90;;;2.20;;
12433;SDS011;6281;49.038;8.372;2022-07-05T04:21:58;8.23;;;2.50;;
12433;SDS011;6281;49.038;8.372;2022-07-05T04:24:25;3.63;;;2.17;;
12433;SDS011;6281;49.038;8.372;2022-07-05T04:26:52;4.23;;;2.40;;
12433;SDS011;6281;49.038;8.372;2022-07-05T04:29:19;3.87;;;2.47;;
12433;SDS011;6281;49.038;8.372;2022-07-05T04:31:47;4.27;;;2.30;;
12433;SDS011;6281;49.038;8.372;2022-07-05T04:34:14;3.40;;;2.33;;
12433;SDS011;6281;49.038;8.372;2022-07-05T04:36:41;4.07;;;2.53;;
12433;SDS011;6281;49.038;8.372;2022-07-05T04:39:08;3.83;;;2.57;;
12433;SDS011;6281;49.038;8.372;2022-07-05T04:41:35;5.97;;;2.87;;
12433;SDS011;6281;49.038;8.372;2022-07-05T04:44:02;5.67;;;2.30;;
12433;SDS011;6281;49.038;8.372;2022-07-05T04:46:29;6.33;;;2.30;;
12433;SDS011;6281;49.038;8.372;2022-07-05T04:48:58;4.50;;;2.20;;
12433;SDS011;6281;49.038;8.372;2022-07-05T04:51:25;6.23;;;2.23;;
12433;SDS011;6281;49.038;8.372;2022-07-05T04:53:52;5.27;;;2.60;;
12433;SDS011;6281;49.038;8.372;2022-07-05T04:56:18;4.20;;;2.20;;
12433;SDS011;6281;49.038;8.372;2022-07-05T04:58:45;4.00;;;2.17;;
12433;SDS011;6281;49.038;8.372;2022-07-05T05:01:12;3.50;;;2.50;;
12433;SDS011;6281;49.038;8.372;2022-07-05T05:03:39;3.23;;;2.67;;
12433;SDS011;6281;49.038;8.372;2022-07-05T05:06:08;3.53;;;2.63;;
12433;SDS011;6281;49.038;8.372;2022-07-05T05:08:35;5.27;;;2.80;;
12433;SDS011;6281;49.038;8.372;2022-07-05T05:11:02;3.57;;;2.37;;
12433;SDS011;6281;49.038;8.372;2022-07-05T05:13:30;4.03;;;2.37;;
12433;SDS011;6281;49.038;8.372;2022-07-05T05:15:57;4.90;;;2.43;;
12433;SDS011;6281;49.038;8.372;2022-07-05T05:18:24;3.80;;;2.40;;
12433;SDS011;6281;49.038;8.372;2022-07-05T05:20:52;5.23;;;2.37;;
12433;SDS011;6281;49.038;8.372;2022-07-05T05:23:21;3.90;;;2.10;;
12433;SDS011;6281;49.038;8.372;2022-07-05T05:25:48;3.23;;;2.23;;
12433;SDS011;6281;49.038;8.372;2022-07-05T05:28:15;4.57;;;2.37;;
12433;SDS011;6281;49.038;8.372;2022-07-05T05:30:42;4.27;;;2.10;;
12433;SDS011;6281;49.038;8.372;2022-07-05T05:33:09;4.53;;;2.43;;
12433;SDS011;6281;49.038;8.372;2022-07-05T05:35:36;6.00;;;2.53;;
12433;SDS011;6281;49.038;8.372;2022-07-05T05:38:03;4.20;;;2.37;;
12433;SDS011;6281;49.038;8.372;2022-07-05T05:40:31;4.27;;;2.33;;
12433;SDS011;6281;49.038;8.372;2022-07-05T05:42:59;5.30;;;2.43;;
12433;SDS011;6281;49.038;8.372;2022-07-05T05:45:26;3.30;;;2.33;;
12433;SDS011;6281;49.038;8.372;2022-07-05T05:47:54;5.53;;;2.53;;
12433;SDS011;6281;49.038;8.372;2022-07-05T05:50:23;3.13;;;2.33;;
12433;SDS011;6281;49.038;8.372;2022-07-05T05:52:50;4.83;;;2.50;;
12433;SDS011;6281;49.038;8.372;2022-07-05T05:55:18;4.23;;;2.50;;
12433;SDS011;6281;49.038;8.372;2022-07-05T05:57:48;2.83;;;2.00;;
12433;SDS011;6281;49.038;8.372;2022-07-05T06:00:15;5.30;;;2.67;;
12433;SDS011;6281;49.038;8.372;2022-07-05T06:02:43;8.77;;;2.43;;
12433;SDS011;6281;49.038;8.372;2022-07-05T06:05:11;4.77;;;2.27;;
12433;SDS011;6281;49.038;8.372;2022-07-05T06:07:45;4.13;;;2.40;;
12433;SDS011;6281;49.038;8.372;2022-07-05T06:10:19;5.63;;;2.17;;
12433;SDS011;6281;49.038;8.372;2022-07-05T06:12:49;2.33;;;2.10;;
12433;SDS011;6281;49.038;8.372;2022-07-05T06:15:17;3.27;;;2.00;;
12433;SDS011;6281;49.038;8.372;2022-07-05T06:17:45;5.73;;;2.10;;
12433;SDS011;6281;49.038;8.372;2022-07-05T06:20:13;2.87;;;2.17;;
12433;SDS011;6281;49.038;8.372;2022-07-05T06:22:42;3.57;;;2.00;;
12433;SDS011;6281;49.038;8.372;2022-07-05T06:25:09;2.53;;;2.20;;
12433;SDS011;6281;49.038;8.372;2022-07-05T06:27:39;3.50;;;2.17;;
12433;SDS011;6281;49.038;8.372;2022-07-05T06:30:09;6.97;;;2.23;;
12433;SDS011;6281;49.038;8.372;2022-07-05T06:32:36;5.27;;;2.17;;
12433;SDS011;6281;49.038;8.372;2022-07-05T06:35:03;5.00;;;1.67;;
12433;SDS011;6281;49.038;8.372;2022-07-05T06:37:41;3.93;;;2.10;;
12433;SDS011;6281;49.038;8.372;2022-07-05T06:40:10;6.27;;;2.40;;
12433;SDS011;6281;49.038;8.372;2022-07-05T06:42:38;3.43;;;1.87;;
12433;SDS011;6281;49.038;8.372;2022-07-05T06:45:05;5.00;;;1.90;;
12433;SDS011;6281;49.038;8.372;2022-07-05T06:47:35;6.97;;;1.70;;
12433;SDS011;6281;49.038;8.372;2022-07-05T06:50:02;2.37;;;1.70;;
12433;SDS011;6281;49.038;8.372;2022-07-05T06:52:30;2.70;;;1.80;;
12433;SDS011;6281;49.038;8.372;2022-07-05T06:54:57;2.40;;;1.70;;
12433;SDS011;6281;49.038;8.372;2022-07-05T06:57:24;3.53;;;1.80;;
12433;SDS011;6281;49.038;8.372;2022-07-05T06:59:51;3.30;;;1.67;;
12433;SDS011;6281;49.038;8.372;2022-07-05T07:02:20;4.37;;;1.97;;
12433;SDS011;6281;49.038;8.372;2022-07-05T07:04:47;2.07;;;1.60;;
12433;SDS011;6281;49.038;8.372;2022-07-05T07:07:14;4.67;;;2.10;;
12433;SDS011;6281;49.038;8.372;2022-07-05T07:09:59;4.00;;;1.90;;
12433;SDS011;6281;49.038;8.372;2022-07-05T07:12:27;3.80;;;1.90;;
12433;SDS011;6281;49.038;8.372;2022-07-05T07:14:54;5.43;;;1.50;;
12433;SDS011;6281;49.038;8.372;2022-07-05T07:17:22;3.80;;;1.80;;
12433;SDS011;6281;49.038;8.372;2022-07-05T07:19:49;5.43;;;1.90;;
12433;SDS011;6281;49.038;8.372;2022-07-05T07:22:16;4.70;;;1.50;;
12433;SDS011;6281;49.038;8.372;2022-07-05T07:24:43;4.73;;;1.53;;
12433;SDS011;6281;49.038;8.372;2022-07-05T07:27:10;3.33;;;1.57;;
12433;SDS011;6281;49.038;8.372;2022-07-05T07:29:37;3.27;;;1.60;;
12433;SDS011;6281;49.038;8.372;2022-07-05T07:32:06;4.60;;;1.50;;
12433;SDS011;6281;49.038;8.372;2022-07-05T07:34:35;4.97;;;1.37;;
12433;SDS011;6281;49.038;8.372;2022-07-05T07:37:03;2.70;;;1.30;;
12433;SDS011;6281;49.038;8.372;2022-07-05T07:39:31;2.47;;;1.50;;
12433;SDS011;6281;49.038;8.372;2022-07-05T07:41:58;3.57;;;1.50;;
12433;SDS011;6281;49.038;8.372;2022-07-05T07:44:25;1.43;;;1.27;;
12433;SDS011;6281;49.038;8.372;2022-07-05T07:46:52;1.80;;;1.40;;
12433;SDS011;6281;49.038;8.372;2022-07-05T07:49:20;4.37;;;1.57;;
12433;SDS011;6281;49.038;8.372;2022-07-05T07:51:48;1.97;;;1.30;;
12433;SDS011;6281;49.038;8.372;2022-07-05T07:54:16;5.00;;;1.40;;
12433;SDS011;6281;49.038;8.372;2022-07-05T07:56:43;4.10;;;1.60;;
12433;SDS011;6281;49.038;8.372;2022-07-05T07:59:10;1.57;;;1.37;;
12433;SDS011;6281;49.038;8.372;2022-07-05T08:01:37;3.53;;;1.50;;
12433;SDS011;6281;49.038;8.372;2022-07-05T08:04:04;4.30;;;1.37;;
12433;SDS011;6281;49.038;8.372;2022-07-05T08:06:31;4.73;;;1.60;;
12433;SDS011;6281;49.038;8.372;2022-07-05T08:09:00;3.57;;;1.80;;
12433;SDS011;6281;49.038;8.372;2022-07-05T08:11:26;2.67;;;1.30;;
12433;SDS011;6281;49.038;8.372;2022-07-05T08:13:53;2.37;;;1.37;;
12433;SDS011;6281;49.038;8.372;2022-07-05T08:16:21;2.63;;;1.40;;
12433;SDS011;6281;49.038;8.372;2022-07-05T08:18:48;2.23;;;1.53;;
12433;SDS011;6281;49.038;8.372;2022-07-05T08:21:32;5.97;;;1.83;;
12433;SDS011;6281;49.038;8.372;2022-07-05T08:24:04;4.50;;;1.77;;
12433;SDS011;6281;49.038;8.372;2022-07-05T08:26:33;2.13;;;1.30;;
12433;SDS011;6281;49.038;8.372;2022-07-05T08:29:01;6.10;;;1.60;;
12433;SDS011;6281;49.038;8.372;2022-07-05T08:31:30;3.33;;;1.40;;
12433;SDS011;6281;49.038;8.372;2022-07-05T08:33:58;2.73;;;1.40;;
12433;SDS011;6281;49.038;8.372;2022-07-05T08:36:25;3.90;;;1.43;;
12433;SDS011;6281;49.038;8.372;2022-07-05T08:38:52;4.03;;;1.57;;
12433;SDS011;6281;49.038;8.372;2022-07-05T08:41:21;5.03;;;1.50;;
12433;SDS011;6281;49.038;8.372;2022-07-05T08:43:49;3.13;;;1.17;;
12433;SDS011;6281;49.038;8.372;2022-07-05T08:46:18;4.20;;;1.40;;
12433;SDS011;6281;49.038;8.372;2022-07-05T08:48:47;3.20;;;1.40;;
12433;SDS011;6281;49.038;8.372;2022-07-05T08:51:15;3.43;;;1.37;;
12433;SDS011;6281;49.038;8.372;2022-07-05T08:53:46;3.30;;;1.40;;
12433;SDS011;6281;49.038;8.372;2022-07-05T08:56:13;6.33;;;1.73;;
12433;SDS011;6281;49.038;8.372;2022-07-05T08:58:42;3.80;;;1.30;;
12433;SDS011;6281;49.038;8.372;2022-07-05T09:01:10;2.33;;;1.20;;
12433;SDS011;6281;49.038;8.372;2022-07-05T09:03:38;2.63;;;1.10;;
12433;SDS011;6281;49.038;8.372;2022-07-05T09:06:09;3.63;;;1.40;;
12433;SDS011;6281;49.038;8.372;2022-07-05T09:08:39;3.50;;;1.50;;
12433;SDS011;6281;49.038;8.372;2022-07-05T09:11:07;1.83;;;1.40;;
12433;SDS011;6281;49.038;8.372;2022-07-05T09:13:35;5.67;;;1.63;;
12433;SDS011;6281;49.038;8.372;2022-07-05T09:16:05;4.90;;;1.60;;
12433;SDS011;6281;49.038;8.372;2022-07-05T09:18:39;2.60;;;1.40;;
12433;SDS011;6281;49.038;8.372;2022-07-05T09:21:13;1.83;;;1.47;;
12433;SDS011;6281;49.038;8.372;2022-07-05T09:23:42;3.00;;;1.40;;
12433;SDS011;6281;49.038;8.372;2022-07-05T09:26:09;4.57;;;1.27;;
12433;SDS011;6281;49.038;8.372;2022-07-05T09:28:36;5.67;;;1.67;;
12433;SDS011;6281;49.038;8.372;2022-07-05T09:31:05;4.80;;;1.40;;
12433;SDS011;6281;49.038;8.372;2022-07-05T09:33:32;2.80;;;1.20;;
12433;SDS011;6281;49.038;8.372;2022-07-05T09:35:59;3.30;;;1.17;;
12433;SDS011;6281;49.038;8.372;2022-07-05T09:38:26;4.30;;;1.30;;
12433;SDS011;6281;49.038;8.372;2022-07-05T09:40:54;2.27;;;1.57;;
12433;SDS011;6281;49.038;8.372;2022-07-05T09:43:23;2.17;;;1.03;;
12433;SDS011;6281;49.038;8.372;2022-07-05T09:45:55;2.60;;;1.10;;
12433;SDS011;6281;49.038;8.372;2022-07-05T09:48:25;1.80;;;1.10;;
12433;SDS011;6281;49.038;8.372;2022-07-05T09:51:03;2.97;;;1.25;;
12433;SDS011;6281;49.038;8.372;2022-07-05T09:53:43;1.83;;;1.00;;
12433;SDS011;6281;49.038;8.372;2022-07-05T09:56:11;2.38;;;1.10;;
12433;SDS011;6281;49.038;8.372;2022-07-05T09:58:39;1.13;;;0.98;;
12433;SDS011;6281;49.038;8.372;2022-07-05T10:01:11;4.53;;;1.17;;
12433;SDS011;6281;49.038;8.372;2022-07-05T10:03:54;6.70;;;1.38;;
12433;SDS011;6281;49.038;8.372;2022-07-05T10:06:22;3.03;;;1.20;;
12433;SDS011;6281;49.038;8.372;2022-07-05T10:08:50;2.58;;;1.10;;
12433;SDS011;6281;49.038;8.372;2022-07-05T10:11:19;2.30;;;1.25;;
12433;SDS011;6281;49.038;8.372;2022-07-05T10:13:47;2.25;;;0.98;;
12433;SDS011;6281;49.038;8.372;2022-07-05T10:16:15;5.63;;;1.20;;
12433;SDS011;6281;49.038;8.372;2022-07-05T10:18:42;3.20;;;1.20;;
12433;SDS011;6281;49.038;8.372;2022-07-05T10:21:12;3.55;;;1.10;;
12433;SDS011;6281;49.038;8.372;2022-07-05T10:23:42;2.90;;;1.10;;
12433;SDS011;6281;49.038;8.372;2022-07-05T10:26:10;2.60;;;1.20;;
12433;SDS011;6281;49.038;8.372;2022-07-05T10:28:38;1.55;;;0.98;;
12433;SDS011;6281;49.038;8.372;2022-07-05T10:31:06;2.20;;;1.15;;
12433;SDS011;6281;49.038;8.372;2022-07-05T10:33:34;1.20;;;1.00;;
12433;SDS011;6281;49.038;8.372;2022-07-05T10:36:02;2.30;;;1.17;;
12433;SDS011;6281;49.038;8.372;2022-07-05T10:38:32;1.77;;;1.27;;
12433;SDS011;6281;49.038;8.372;2022-07-05T10:41:02;2.38;;;1.30;;
12433;SDS011;6281;49.038;8.372;2022-07-05T10:43:31;1.80;;;0.80;;
12433;SDS011;6281;49.038;8.372;2022-07-05T10:45:58;1.55;;;1.10;;
12433;SDS011;6281;49.038;8.372;2022-07-05T10:48:26;1.52;;;0.80;;
12433;SDS011;6281;49.038;8.372;2022-07-05T10:50:54;3.78;;;1.00;;
12433;SDS011;6281;49.038;8.372;2022-07-05T10:53:22;1.90;;;1.00;;
12433;SDS011;6281;49.038;8.372;2022-07-05T10:55:58;4.13;;;0.90;;
12433;SDS011;6281;49.038;8.372;2022-07-05T10:58:26;2.47;;;1.40;;
12433;SDS011;6281;49.038;8.372;2022-07-05T11:07:03;2.10;;;1.13;;
12433;SDS011;6281;49.038;8.372;2022-07-05T11:09:30;4.80;;;0.98;;
12433;SDS011;6281;49.038;8.372;2022-07-05T11:12:08;1.65;;;1.08;;
12433;SDS011;6281;49.038;8.372;2022-07-05T11:14:38;3.53;;;1.02;;
12433;SDS011;6281;49.038;8.372;2022-07-05T11:17:12;1.40;;;1.10;;
12433;SDS011;6281;49.038;8.372;2022-07-05T11:19:59;2.72;;;1.02;;
12433;SDS011;6281;49.038;8.372;2022-07-05T11:22:41;1.83;;;0.95;;
12433;SDS011;6281;49.038;8.372;2022-07-05T11:25:27;2.25;;;1.60;;
12433;SDS011;6281;49.038;8.372;2022-07-05T11:28:00;1.27;;;1.02;;
12433;SDS011;6281;49.038;8.372;2022-07-05T11:30:43;1.05;;;0.95;;
12433;SDS011;6281;49.038;8.372;2022-07-05T11:33:27;2.88;;;1.10;;
12433;SDS011;6281;49.038;8.372;2022-07-05T11:35:59;1.83;;;1.08;;
12433;SDS011;6281;49.038;8.372;2022-07-05T11:38:27;1.40;;;1.08;;
12433;SDS011;6281;49.038;8.372;2022-07-05T11:40:55;2.35;;;1.08;;
12433;SDS011;6281;49.038;8.372;2022-07-05T11:43:37;3.90;;;1.00;;
12433;SDS011;6281;49.038;8.372;2022-07-05T11:46:06;2.10;;;1.20;;
12433;SDS011;6281;49.038;8.372;2022-07-05T11:48:33;1.27;;;1.05;;
12433;SDS011;6281;49.038;8.372;2022-07-05T11:51:11;1.60;;;0.85;;
12433;SDS011;6281;49.038;8.372;2022-07-05T11:53:39;4.72;;;1.05;;
12433;SDS011;6281;49.038;8.372;2022-07-05T11:56:07;2.38;;;0.90;;
12433;SDS011;6281;49.038;8.372;2022-07-05T11:58:37;4.15;;;1.05;;
12433;SDS011;6281;49.038;8.372;2022-07-05T12:01:04;2.45;;;1.00;;
12433;SDS011;6281;49.038;8.372;2022-07-05T12:03:32;2.05;;;1.23;;
12433;SDS011;6281;49.038;8.372;2022-07-05T12:06:09;2.47;;;1.05;;
12433;SDS011;6281;49.038;8.372;2022-07-05T12:08:37;1.75;;;1.10;;
12433;SDS011;6281;49.038;8.372;2022-07-05T12:11:04;2.38;;;1.17;;
12433;SDS011;6281;49.038;8.372;2022-07-05T12:13:50;3.13;;;0.90;;
12433;SDS011;6281;49.038;8.372;2022-07-05T12:16:17;1.90;;;1.15;;
12433;SDS011;6281;49.038;8.372;2022-07-05T12:18:48;1.42;;;1.00;;
12433;SDS011;6281;49.038;8.372;2022-07-05T12:21:16;4.20;;;1.20;;
12433;SDS011;6281;49.038;8.372;2022-07-05T12:23:45;1.90;;;1.00;;
12433;SDS011;6281;49.038;8.372;2022-07-05T12:26:13;1.35;;;1.02;;
12433;SDS011;6281;49.038;8.372;2022-07-05T12:28:40;2.03;;;1.10;;
12433;SDS011;6281;49.038;8.372;2022-07-05T12:31:17;2.55;;;0.90;;
12433;SDS011;6281;49.038;8.372;2022-07-05T12:33:44;2.20;;;1.13;;
12433;SDS011;6281;49.038;8.372;2022-07-05T12:36:12;6.05;;;1.20;;
12433;SDS011;6281;49.038;8.372;2022-07-05T12:38:39;2.78;;;0.95;;
12433;SDS011;6281;49.038;8.372;2022-07-05T12:41:06;2.33;;;1.33;;
12433;SDS011;6281;49.038;8.372;2022-07-05T12:43:33;1.63;;;1.25;;
12433;SDS011;6281;49.038;8.372;2022-07-05T12:46:16;3.97;;;1.20;;
12433;SDS011;6281;49.038;8.372;2022-07-05T12:48:43;0.85;;;0.85;;
12433;SDS011;6281;49.038;8.372;2022-07-05T12:51:10;2.05;;;1.10;;
12433;SDS011;6281;49.038;8.372;2022-07-05T12:53:44;2.05;;;1.10;;
12433;SDS011;6281;49.038;8.372;2022-07-05T12:56:29;4.13;;;0.98;;
12433;SDS011;6281;49.038;8.372;2022-07-05T12:59:14;1.25;;;1.08;;
12433;SDS011;6281;49.038;8.372;2022-07-05T13:01:43;1.13;;;1.00;;
12433;SDS011;6281;49.038;8.372;2022-07-05T13:04:11;1.50;;;0.90;;
12433;SDS011;6281;49.038;8.372;2022-07-05T13:06:39;1.92;;;1.00;;
12433;SDS011;6281;49.038;8.372;2022-07-05T13:09:07;1.48;;;1.17;;
12433;SDS011;6281;49.038;8.372;2022-07-05T13:11:34;2.15;;;1.08;;
12433;SDS011;6281;49.038;8.372;2022-07-05T13:14:01;3.80;;;1.02;;
12433;SDS011;6281;49.038;8.372;2022-07-05T13:16:28;1.67;;;1.13;;
12433;SDS011;6281;49.038;8.372;2022-07-05T13:18:56;3.40;;;0.90;;
12433;SDS011;6281;49.038;8.372;2022-07-05T13:21:32;1.27;;;1.02;;
12433;SDS011;6281;49.038;8.372;2022-07-05T13:23:59;2.25;;;1.15;;
12433;SDS011;6281;49.038;8.372;2022-07-05T13:26:26;2.92;;;1.00;;
12433;SDS011;6281;49.038;8.372;2022-07-05T13:28:53;1.30;;;0.80;;
12433;SDS011;6281;49.038;8.372;2022-07-05T13:31:20;2.25;;;1.00;;
12433;SDS011;6281;49.038;8.372;2022-07-05T13:33:47;1.30;;;0.90;;
12433;SDS011;6281;49.038;8.372;2022-07-05T13:36:15;1.60;;;1.08;;
12433;SDS011;6281;49.038;8.372;2022-07-05T13:38:42;2.20;;;0.98;;
12433;SDS011;6281;49.038;8.372;2022-07-05T13:41:09;1.55;;;1.10;;
12433;SDS011;6281;49.038;8.372;2022-07-05T13:43:36;3.35;;;1.10;;
12433;SDS011;6281;49.038;8.372;2022-07-05T13:46:03;1.30;;;1.00;;
12433;SDS011;6281;49.038;8.372;2022-07-05T13:48:30;2.80;;;1.30;;
12433;SDS011;6281;49.038;8.372;2022-07-05T13:50:56;1.58;;;1.10;;
12433;SDS011;6281;49.038;8.372;2022-07-05T13:53:24;3.78;;;1.05;;
12433;SDS011;6281;49.038;8.372;2022-07-05T13:55:52;2.38;;;1.20;;
12433;SDS011;6281;49.038;8.372;2022-07-05T13:58:19;1.40;;;0.90;;
12433;SDS011;6281;49.038;8.372;2022-07-05T14:00:46;1.73;;;0.95;;
12433;SDS011;6281;49.038;8.372;2022-07-05T14:03:13;2.95;;;1.02;;
12433;SDS011;6281;49.038;8.372;2022-07-05T14:05:41;1.63;;;0.90;;
12433;SDS011;6281;49.038;8.372;2022-07-05T14:08:26;2.53;;;1.13;;
12433;SDS011;6281;49.038;8.372;2022-07-05T14:10:53;2.65;;;1.10;;
12433;SDS011;6281;49.038;8.372;2022-07-05T14:13:22;2.03;;;1.10;;
12433;SDS011;6281;49.038;8.372;2022-07-05T14:15:50;1.98;;;0.90;;
12433;SDS011;6281;49.038;8.372;2022-07-05T14:21:37;3.17;;;1.27;;
12433;SDS011;6281;49.038;8.372;2022-07-05T14:24:05;2.45;;;0.90;;
12433;SDS011;6281;49.038;8.372;2022-07-05T14:26:32;2.63;;;1.00;;
12433;SDS011;6281;49.038;8.372;2022-07-05T14:28:59;3.50;;;1.15;;
12433;SDS011;6281;49.038;8.372;2022-07-05T14:31:27;3.20;;;1.00;;
12433;SDS011;6281;49.038;8.372;2022-07-05T14:33:55;1.60;;;0.90;;
12433;SDS011;6281;49.038;8.372;2022-07-05T14:36:22;1.92;;;0.90;;
12433;SDS011;6281;49.038;8.372;2022-07-05T14:38:49;1.52;;;0.90;;
12433;SDS011;6281;49.038;8.372;2022-07-05T14:41:18;1.63;;;1.00;;
12433;SDS011;6281;49.038;8.372;2022-07-05T14:43:45;1.55;;;1.08;;
12433;SDS011;6281;49.038;8.372;2022-07-05T14:46:12;3.08;;;0.93;;
12433;SDS011;6281;49.038;8.372;2022-07-05T14:48:43;1.38;;;0.95;;
12433;SDS011;6281;49.038;8.372;2022-07-05T14:51:10;1.35;;;1.00;;
12433;SDS011;6281;49.038;8.372;2022-07-05T14:53:37;1.08;;;0.90;;
12433;SDS011;6281;49.038;8.372;2022-07-05T14:56:07;2.90;;;1.10;;
12433;SDS011;6281;49.038;8.372;2022-07-05T14:58:35;1.73;;;0.90;;
12433;SDS011;6281;49.038;8.372;2022-07-05T15:01:02;4.65;;;1.58;;
12433;SDS011;6281;49.038;8.372;2022-07-05T15:03:29;1.33;;;0.90;;
12433;SDS011;6281;49.038;8.372;2022-07-05T15:05:56;2.80;;;1.00;;
12433;SDS011;6281;49.038;8.372;2022-07-05T15:08:23;3.55;;;0.90;;
12433;SDS011;6281;49.038;8.372;2022-07-05T15:10:53;1.52;;;1.00;;
12433;SDS011;6281;49.038;8.372;2022-07-05T15:13:20;2.63;;;1.20;;
12433;SDS011;6281;49.038;8.372;2022-07-05T15:15:51;3.25;;;1.10;;
12433;SDS011;6281;49.038;8.372;2022-07-05T15:18:19;0.98;;;0.90;;